15:02
Airports
Links
Donate
Help keep this website running!
PayPal
Bitcoin
METAR
EBAW 161450Z 26013KT 8000 -SHRA SCT035CB 06/01 Q0995 TEMPO 28016G29KT
Current Weather Conditions at EBAW
MVFR 14:50:00 16-01-18
Altimeter:29.38 hg
Temp:6.0°c 43°f
Dew point:1.0°c 34°f
Wind:13 knots, 15 mph, 7 m/s, from 260°
Visibility:4.97 statute miles
3500(SCT) Scattered
Past METAR reports
VFR 14:20:00 16-01-18
Altimeter:29.38 hg
Temp:7.0°c 45°f
Dew point:0.0°c 32°f
Wind:14 knots, 16.1 mph, 7 m/s, from 270°
Visibility:6.21 statute miles
3300(SCT) Scattered
EBAW 161420Z 27014KT 9999 SCT033CB 07/M00 Q0995 TEMPO 28016G29KT
VFR 13:50:00 16-01-18
Altimeter:29.38 hg
Temp:7.0°c 45°f
Dew point:0.0°c 32°f
Wind:16 knots, 18.4 mph, 8 m/s, from 280°
Visibility:6.21 statute miles
3300(SCT) Scattered
EBAW 161350Z 28016KT 240V310 9999 -SHRA SCT033CB 07/00 Q0995 TEMPO 28016G29KT
VFR 13:20:00 16-01-18
Altimeter:29.38 hg
Temp:7.0°c 45°f
Dew point:0.0°c 32°f
Wind:16 knots, 18.4 mph, 8 m/s, from 280°
Visibility:6.21 statute miles
3300(SCT) Scattered
No significant weather changes expected within 2 hours.
EBAW 161320Z 28016G28KT 9999 SCT033CB 07/00 Q0995 NOSIG
VFR 12:50:00 16-01-18
Altimeter:29.38 hg
Temp:7.0°c 45°f
Dew point:1.0°c 34°f
Wind:13 knots, 15 mph, 7 m/s, from 280°
Visibility:6.21 statute miles
3300(SCT) Scattered
EBAW 161250Z 28013KT 9999 SCT033CB 07/01 Q0995 TEMPO 25015G28KT
VFR 12:20:00 16-01-18
Altimeter:29.38 hg
Temp:7.0°c 45°f
Dew point:1.0°c 34°f
Wind:16 knots, 18.4 mph, 8 m/s, from 270°
Visibility:6.21 statute miles
2900(SCT) Scattered
EBAW 161220Z 27016KT 240V300 9999 SCT029 07/01 Q0995 TEMPO 25015G28KT
VFR 11:50:00 16-01-18
Altimeter:29.38 hg
Temp:7.0°c 45°f
Dew point:2.0°c 36°f
Wind:13 knots, 15 mph, 7 m/s, from 260°
Visibility:6.21 statute miles
2900(SCT) Scattered
No significant weather changes expected within 2 hours.
EBAW 161150Z 26013KT 9999 SCT029 07/02 Q0995 NOSIG
TAF
TAF EBAW 161410Z 1615/1624 25016G27KT 9999 FEW015TCU SCT025 PROB40 TEMPO 1615/1624 4000 25025G38KT SHRASN SHGS BKN007 SCT015CB
Forecast at EBAW
TEMPO 15:00 16-01-18 to 00:00 17-01-18
40% SHRA SHSN SHGS
Wind:25 Knots from 250°
Visibility:2.49 statute miles
700BKN Broken
1500SCT Scattered
15:00 16-01-18 to 00:00 17-01-18
Wind:16 Knots from 250°
Visibility:6.21 statute miles
1500FEW A few
2500SCT Scattered